createdAt,value
2017-09-09T00:00:08.631Z,0
2017-09-09T00:01:10.052Z,0
2017-09-09T00:02:11.506Z,0
2017-09-09T00:03:12.937Z,0
2017-09-09T00:04:14.365Z,0
2017-09-09T00:05:15.811Z,0
2017-09-09T00:06:17.275Z,0
2017-09-09T00:07:18.752Z,0
2017-09-09T00:08:20.252Z,0
2017-09-09T00:09:21.691Z,0
2017-09-09T00:10:23.137Z,0
2017-09-09T00:11:24.608Z,0
2017-09-09T00:12:26.419Z,0
2017-09-09T00:13:27.843Z,0
2017-09-09T00:14:29.296Z,0
2017-09-09T00:15:30.727Z,0
2017-09-09T00:16:32.186Z,0
2017-09-09T00:17:33.639Z,0
2017-09-09T00:18:35.077Z,0
2017-09-09T00:19:36.515Z,0
2017-09-09T00:20:37.963Z,0
2017-09-09T00:21:39.427Z,0
2017-09-09T00:22:40.879Z,0
2017-09-09T00:23:42.322Z,0
2017-09-09T00:24:43.762Z,0
2017-09-09T00:25:45.202Z,0
2017-09-09T00:26:46.640Z,0
2017-09-09T00:27:48.114Z,0
2017-09-09T00:28:49.560Z,0
2017-09-09T00:29:51.045Z,0
2017-09-09T00:30:52.498Z,0
2017-09-09T00:31:53.970Z,0
2017-09-09T00:32:55.337Z,0
2017-09-09T00:33:56.781Z,0
2017-09-09T00:34:58.220Z,0
2017-09-09T00:35:59.686Z,0
2017-09-09T00:37:01.140Z,0
2017-09-09T00:38:02.587Z,0
2017-09-09T00:39:04.025Z,0
2017-09-09T00:40:05.474Z,0
2017-09-09T00:41:06.917Z,0
2017-09-09T00:42:08.361Z,0
2017-09-09T00:43:09.821Z,0
2017-09-09T00:44:11.307Z,0
2017-09-09T00:45:12.768Z,0
2017-09-09T00:46:14.209Z,0
2017-09-09T00:47:15.667Z,0
2017-09-09T00:48:17.136Z,0
2017-09-09T00:49:18.581Z,0
2017-09-09T00:50:20.085Z,0
2017-09-09T00:51:21.518Z,0
2017-09-09T00:52:23.032Z,0
2017-09-09T00:53:24.461Z,0
2017-09-09T00:54:25.907Z,0
2017-09-09T00:55:27.340Z,0
2017-09-09T00:56:28.784Z,0
2017-09-09T00:57:30.249Z,0
2017-09-09T00:58:31.681Z,0
2017-09-09T00:59:33.124Z,0
2017-09-09T01:00:34.561Z,0
2017-09-09T01:01:36.007Z,0
2017-09-09T01:02:37.440Z,0
2017-09-09T01:03:38.896Z,0
2017-09-09T01:04:40.328Z,0
2017-09-09T01:05:41.777Z,0
2017-09-09T01:06:43.246Z,0
2017-09-09T01:07:44.684Z,0
2017-09-09T01:08:46.132Z,0
2017-09-09T01:09:47.602Z,0
2017-09-09T01:10:49.049Z,0
2017-09-09T01:11:50.480Z,0
2017-09-09T01:12:51.901Z,0
2017-09-09T01:13:53.365Z,0
2017-09-09T01:14:54.806Z,0
2017-09-09T01:15:56.261Z,0
2017-09-09T01:16:57.711Z,0
2017-09-09T01:17:59.150Z,0
2017-09-09T01:19:00.626Z,0
2017-09-09T01:20:02.057Z,0
2017-09-09T01:21:03.493Z,0
2017-09-09T01:22:04.922Z,0
2017-09-09T01:23:06.368Z,0
2017-09-09T01:24:07.816Z,0
2017-09-09T01:25:09.284Z,0
2017-09-09T01:26:10.749Z,0
2017-09-09T01:27:12.181Z,0
2017-09-09T01:28:13.627Z,0
2017-09-09T01:29:15.107Z,0
2017-09-09T01:30:16.553Z,0
2017-09-09T01:31:18.018Z,0
2017-09-09T01:32:19.462Z,0
2017-09-09T01:33:20.899Z,0
2017-09-09T01:34:22.358Z,0
2017-09-09T01:35:23.787Z,0
2017-09-09T01:36:25.238Z,0
2017-09-09T01:37:26.673Z,0
2017-09-09T01:38:28.104Z,0
2017-09-09T01:39:29.550Z,0
2017-09-09T01:40:30.967Z,0
2017-09-09T01:41:32.424Z,0
2017-09-09T01:42:33.865Z,0
2017-09-09T01:43:35.314Z,0
2017-09-09T01:44:36.751Z,0
2017-09-09T01:45:38.192Z,0
2017-09-09T01:46:39.642Z,0
2017-09-09T01:47:41.074Z,0
2017-09-09T01:48:42.511Z,0
2017-09-09T01:49:43.937Z,0
2017-09-09T01:50:45.360Z,0
2017-09-09T01:51:46.799Z,0
2017-09-09T01:52:48.231Z,0
2017-09-09T01:53:49.699Z,0
2017-09-09T01:54:51.147Z,0
2017-09-09T01:55:52.591Z,0
2017-09-09T01:56:54.030Z,0
2017-09-09T01:57:55.486Z,0
2017-09-09T01:58:56.969Z,0
2017-09-09T01:59:58.465Z,0
2017-09-09T02:00:59.891Z,0
2017-09-09T02:02:01.345Z,0
2017-09-09T02:03:02.777Z,0
2017-09-09T02:04:04.214Z,0
2017-09-09T02:05:05.661Z,0
2017-09-09T02:06:07.091Z,0
2017-09-09T02:07:08.527Z,0
2017-09-09T02:08:09.968Z,0
2017-09-09T02:09:11.411Z,0
2017-09-09T02:10:12.872Z,0
2017-09-09T02:11:14.309Z,0
2017-09-09T02:12:15.744Z,0
2017-09-09T02:13:17.195Z,0
2017-09-09T02:14:18.645Z,0
2017-09-09T02:15:20.112Z,0
2017-09-09T02:16:21.554Z,0
2017-09-09T02:17:23.016Z,0
2017-09-09T02:18:24.538Z,0
2017-09-09T02:19:25.998Z,0
2017-09-09T02:20:27.437Z,0
2017-09-09T02:21:28.866Z,0
2017-09-09T02:22:30.289Z,0
2017-09-09T02:23:31.775Z,0
2017-09-09T02:24:33.237Z,0
2017-09-09T02:25:34.659Z,0
2017-09-09T02:26:36.121Z,0
2017-09-09T02:27:37.586Z,0
2017-09-09T02:28:39.038Z,0
2017-09-09T02:29:40.510Z,0
2017-09-09T02:30:41.944Z,0
2017-09-09T02:31:43.386Z,0
2017-09-09T02:32:44.812Z,0
2017-09-09T02:33:46.262Z,0
2017-09-09T02:34:47.718Z,0
2017-09-09T02:35:49.183Z,0
2017-09-09T02:36:50.629Z,0
2017-09-09T02:37:52.062Z,0
2017-09-09T02:38:53.544Z,0
2017-09-09T02:39:54.986Z,0
2017-09-09T02:40:56.452Z,0
2017-09-09T02:41:57.910Z,0
2017-09-09T02:42:59.353Z,0
2017-09-09T02:44:00.792Z,0
2017-09-09T02:45:03.115Z,0
2017-09-09T02:46:04.566Z,0
2017-09-09T02:47:06.040Z,0
2017-09-09T02:48:07.483Z,0
2017-09-09T02:49:08.924Z,0
2017-09-09T02:50:10.367Z,0
2017-09-09T02:51:11.818Z,0
2017-09-09T02:52:13.260Z,0
2017-09-09T02:53:14.699Z,0
2017-09-09T02:54:16.198Z,0
2017-09-09T02:55:17.601Z,0
2017-09-09T02:56:19.042Z,0
2017-09-09T02:57:20.524Z,0
2017-09-09T02:58:21.981Z,0
2017-09-09T02:59:23.429Z,0
2017-09-09T03:00:24.879Z,0
2017-09-09T03:01:26.344Z,0
2017-09-09T03:02:27.784Z,0
2017-09-09T03:03:29.214Z,0
2017-09-09T03:04:30.674Z,0
2017-09-09T03:05:32.562Z,0
2017-09-09T03:06:35.080Z,0
2017-09-09T03:07:36.530Z,0
2017-09-09T03:08:37.999Z,0
2017-09-09T03:09:39.441Z,0
2017-09-09T03:10:40.880Z,0
2017-09-09T03:11:42.309Z,0
2017-09-09T03:12:43.748Z,0
2017-09-09T03:13:45.191Z,0
2017-09-09T03:14:46.800Z,0
2017-09-09T03:15:48.524Z,0
2017-09-09T03:16:49.990Z,0
2017-09-09T03:17:51.439Z,0
2017-09-09T03:18:52.886Z,0
2017-09-09T03:19:54.337Z,0
2017-09-09T03:20:55.774Z,0
2017-09-09T03:21:57.222Z,0
2017-09-09T03:22:58.656Z,0
2017-09-09T03:24:00.121Z,0
2017-09-09T03:25:01.649Z,0
2017-09-09T03:26:03.637Z,0
2017-09-09T03:27:05.098Z,0
2017-09-09T03:28:06.554Z,0
2017-09-09T03:29:08.012Z,0
2017-09-09T03:30:09.474Z,0
2017-09-09T03:31:10.983Z,0
2017-09-09T03:32:12.423Z,0
2017-09-09T03:33:13.884Z,0
2017-09-09T03:34:15.327Z,0
2017-09-09T03:35:16.779Z,0
2017-09-09T03:36:18.224Z,0
2017-09-09T03:37:19.680Z,0
2017-09-09T03:38:21.130Z,0
2017-09-09T03:39:22.583Z,0
2017-09-09T03:40:24.035Z,0
2017-09-09T03:41:25.509Z,0
2017-09-09T03:42:27.009Z,0
2017-09-09T03:43:28.550Z,0
2017-09-09T03:44:29.968Z,0
2017-09-09T03:45:31.422Z,0
2017-09-09T03:46:32.920Z,0
2017-09-09T03:47:34.381Z,0
2017-09-09T03:48:35.828Z,0
2017-09-09T03:49:37.267Z,0
2017-09-09T03:50:38.722Z,0
2017-09-09T03:51:40.189Z,0
2017-09-09T03:52:41.609Z,0
2017-09-09T03:53:43.056Z,0
2017-09-09T03:54:44.504Z,0
2017-09-09T03:55:45.925Z,0
2017-09-09T03:56:47.420Z,0
2017-09-09T03:57:48.849Z,0
2017-09-09T03:58:50.329Z,0
2017-09-09T03:59:51.768Z,0
2017-09-09T04:00:53.230Z,0
2017-09-09T04:01:54.704Z,0
2017-09-09T04:02:56.162Z,0
2017-09-09T04:03:57.603Z,0
2017-09-09T04:04:59.046Z,0
2017-09-09T04:06:00.513Z,0
2017-09-09T04:07:01.998Z,0
2017-09-09T04:08:03.457Z,0
2017-09-09T04:09:04.916Z,0
2017-09-09T04:10:06.380Z,0
2017-09-09T04:11:07.808Z,0
2017-09-09T04:12:09.278Z,0
2017-09-09T04:13:10.727Z,0
2017-09-09T04:14:12.163Z,0
2017-09-09T04:15:13.624Z,0
2017-09-09T04:16:15.051Z,0
2017-09-09T04:17:16.482Z,0
2017-09-09T04:18:17.918Z,0
2017-09-09T04:19:19.372Z,0
2017-09-09T04:20:20.853Z,0
2017-09-09T04:21:22.713Z,0
2017-09-09T04:22:24.168Z,0
2017-09-09T04:23:25.622Z,0
2017-09-09T04:24:27.042Z,0
2017-09-09T04:25:28.487Z,0
2017-09-09T04:26:29.921Z,0
2017-09-09T04:27:31.375Z,0
2017-09-09T04:28:32.913Z,0
2017-09-09T04:29:34.374Z,0
2017-09-09T04:30:35.809Z,0
2017-09-09T04:31:37.267Z,0
2017-09-09T04:32:39.130Z,0
2017-09-09T04:33:40.582Z,0
2017-09-09T04:34:42.017Z,0
2017-09-09T04:35:43.473Z,0
2017-09-09T04:36:44.910Z,0
2017-09-09T04:37:46.370Z,0
2017-09-09T04:38:47.813Z,0
2017-09-09T04:39:49.285Z,0
2017-09-09T04:40:50.740Z,0
2017-09-09T04:41:52.185Z,0
2017-09-09T04:42:53.636Z,0
2017-09-09T04:43:55.148Z,0
2017-09-09T04:44:56.604Z,0
2017-09-09T04:45:58.049Z,0
2017-09-09T04:46:59.505Z,0
2017-09-09T04:48:00.941Z,0
2017-09-09T04:49:02.390Z,0
2017-09-09T04:50:03.859Z,0
2017-09-09T04:51:05.323Z,0
2017-09-09T04:52:06.785Z,4
2017-09-09T04:53:08.247Z,4
2017-09-09T04:54:09.757Z,4
2017-09-09T04:55:11.197Z,4
2017-09-09T04:56:12.670Z,4
2017-09-09T04:57:14.684Z,4
2017-09-09T04:58:16.147Z,4
2017-09-09T04:59:17.611Z,4
2017-09-09T05:00:19.101Z,4
2017-09-09T05:01:20.951Z,4
2017-09-09T05:02:22.420Z,4
2017-09-09T05:03:23.877Z,4
2017-09-09T05:04:25.344Z,4
2017-09-09T05:05:26.770Z,8
2017-09-09T05:06:28.224Z,4
2017-09-09T05:07:29.665Z,8
2017-09-09T05:08:31.124Z,4
2017-09-09T05:09:32.999Z,8
2017-09-09T05:10:34.458Z,8
2017-09-09T05:11:36.368Z,8
2017-09-09T05:12:37.893Z,12
2017-09-09T05:13:39.373Z,8
2017-09-09T05:14:40.863Z,12
2017-09-09T05:15:42.324Z,8
2017-09-09T05:16:43.847Z,12
2017-09-09T05:17:45.322Z,12
2017-09-09T05:18:46.845Z,12
2017-09-09T05:19:48.372Z,12
2017-09-09T05:20:49.882Z,16
2017-09-09T05:21:51.370Z,16
2017-09-09T05:22:52.872Z,16
2017-09-09T05:23:54.357Z,16
2017-09-09T05:24:56.736Z,20
2017-09-09T05:25:58.240Z,20
2017-09-09T05:26:59.770Z,20
2017-09-09T05:28:01.221Z,24
2017-09-09T05:29:02.675Z,28
2017-09-09T05:30:04.215Z,28
2017-09-09T05:31:05.696Z,28
2017-09-09T05:32:07.198Z,28
2017-09-09T05:33:08.666Z,28
2017-09-09T05:34:10.143Z,32
2017-09-09T05:35:11.627Z,32
2017-09-09T05:36:13.127Z,40
2017-09-09T05:37:14.620Z,40
2017-09-09T05:38:16.144Z,44
2017-09-09T05:39:17.637Z,44
2017-09-09T05:40:19.121Z,44
2017-09-09T05:41:20.622Z,48
2017-09-09T05:42:22.082Z,44
2017-09-09T05:43:23.609Z,40
2017-09-09T05:44:25.106Z,44
2017-09-09T05:45:26.656Z,44
2017-09-09T05:46:28.416Z,48
2017-09-09T05:47:29.952Z,52
2017-09-09T05:48:31.472Z,56
2017-09-09T05:49:33.009Z,64
2017-09-09T05:50:34.549Z,68
2017-09-09T05:51:36.037Z,64
2017-09-09T05:52:37.516Z,56
2017-09-09T05:53:39.024Z,60
2017-09-09T05:54:40.512Z,68
2017-09-09T05:55:42.749Z,52
2017-09-09T05:56:44.293Z,60
2017-09-09T05:57:45.852Z,60
2017-09-09T05:58:47.373Z,68
2017-09-09T05:59:48.876Z,72
2017-09-09T06:00:50.408Z,76
2017-09-09T06:01:51.939Z,76
2017-09-09T06:02:53.446Z,76
2017-09-09T06:03:54.923Z,76
2017-09-09T06:04:56.354Z,72
2017-09-09T06:05:57.840Z,80
2017-09-09T06:06:59.484Z,80
2017-09-09T06:08:01.102Z,84
2017-09-09T06:09:02.542Z,88
2017-09-09T06:10:04.058Z,100
2017-09-09T06:11:05.625Z,112
2017-09-09T06:12:07.274Z,124
2017-09-09T06:13:08.837Z,140
2017-09-09T06:14:10.467Z,144
2017-09-09T06:15:12.052Z,160
2017-09-09T06:16:13.618Z,164
2017-09-09T06:17:15.171Z,172
2017-09-09T06:18:16.722Z,184
2017-09-09T06:19:18.260Z,188
2017-09-09T06:20:19.772Z,184
2017-09-09T06:21:21.362Z,160
2017-09-09T06:22:22.858Z,156
2017-09-09T06:23:24.445Z,144
2017-09-09T06:24:26.013Z,136
2017-09-09T06:25:27.598Z,128
2017-09-09T06:26:29.149Z,136
2017-09-09T06:27:30.741Z,156
2017-09-09T06:28:32.307Z,180
2017-09-09T06:29:33.883Z,184
2017-09-09T06:30:35.447Z,188
2017-09-09T06:31:37.124Z,184
2017-09-09T06:32:38.630Z,180
2017-09-09T06:33:40.832Z,176
2017-09-09T06:34:42.505Z,172
2017-09-09T06:35:44.045Z,160
2017-09-09T06:36:45.596Z,144
2017-09-09T06:37:47.161Z,124
2017-09-09T06:38:48.728Z,112
2017-09-09T06:39:50.181Z,104
2017-09-09T06:40:51.770Z,100
2017-09-09T06:41:53.474Z,100
2017-09-09T06:42:54.982Z,108
2017-09-09T06:43:56.534Z,112
2017-09-09T06:44:58.050Z,116
2017-09-09T06:45:59.591Z,124
2017-09-09T06:47:01.151Z,128
2017-09-09T06:48:02.705Z,124
2017-09-09T06:49:04.298Z,124
2017-09-09T06:50:05.833Z,136
2017-09-09T06:51:07.503Z,144
2017-09-09T06:52:09.286Z,148
2017-09-09T06:53:10.868Z,156
2017-09-09T06:54:12.359Z,168
2017-09-09T06:55:13.895Z,184
2017-09-09T06:56:15.549Z,188
2017-09-09T06:57:17.075Z,208
2017-09-09T06:58:18.589Z,260
2017-09-09T06:59:20.120Z,284
2017-09-09T07:00:21.654Z,248
2017-09-09T07:01:23.176Z,244
2017-09-09T07:02:24.652Z,276
2017-09-09T07:03:26.210Z,344
2017-09-09T07:04:27.745Z,376
2017-09-09T07:05:29.284Z,356
2017-09-09T07:06:31.709Z,344
2017-09-09T07:07:33.244Z,372
2017-09-09T07:08:34.711Z,408
2017-09-09T07:09:36.202Z,416
2017-09-09T07:10:37.660Z,448
2017-09-09T07:11:39.127Z,428
2017-09-09T07:12:40.650Z,452
2017-09-09T07:13:42.173Z,504
2017-09-09T07:14:43.716Z,524
2017-09-09T07:15:45.283Z,504
2017-09-09T07:16:46.856Z,448
2017-09-09T07:17:48.400Z,420
2017-09-09T07:18:49.934Z,412
2017-09-09T07:19:51.453Z,372
2017-09-09T07:20:52.956Z,324
2017-09-09T07:21:54.544Z,380
2017-09-09T07:22:56.091Z,404
2017-09-09T07:23:57.663Z,448
2017-09-09T07:24:59.253Z,388
2017-09-09T07:26:00.880Z,368
2017-09-09T07:27:02.440Z,268
2017-09-09T07:28:03.973Z,312
2017-09-09T07:29:05.579Z,336
2017-09-09T07:30:07.226Z,400
2017-09-09T07:31:08.812Z,444
2017-09-09T07:32:10.387Z,336
2017-09-09T07:33:11.936Z,384
2017-09-09T07:34:13.518Z,512
2017-09-09T07:35:15.086Z,524
2017-09-09T07:36:16.806Z,568
2017-09-09T07:37:18.389Z,608
2017-09-09T07:38:19.920Z,580
2017-09-09T07:39:21.393Z,548
2017-09-09T07:40:22.918Z,532
2017-09-09T07:41:24.540Z,516
2017-09-09T07:42:26.183Z,560
2017-09-09T07:43:27.692Z,508
2017-09-09T07:44:29.213Z,548
2017-09-09T07:45:30.751Z,564
2017-09-09T07:46:32.320Z,612
2017-09-09T07:47:33.852Z,664
2017-09-09T07:48:35.370Z,688
2017-09-09T07:49:36.928Z,640
2017-09-09T07:50:38.441Z,668
2017-09-09T07:51:40.734Z,688
2017-09-09T07:52:42.818Z,676
2017-09-09T07:53:44.321Z,668
2017-09-09T07:54:45.867Z,712
2017-09-09T07:55:47.407Z,808
2017-09-09T07:56:48.920Z,648
2017-09-09T07:57:50.402Z,388
2017-09-09T07:58:52.009Z,232
2017-09-09T07:59:53.533Z,216
2017-09-09T08:00:55.022Z,316
2017-09-09T08:01:56.554Z,376
2017-09-09T08:02:58.048Z,428
2017-09-09T08:03:59.537Z,596
2017-09-09T08:05:01.212Z,572
2017-09-09T08:06:02.709Z,644
2017-09-09T08:07:04.180Z,472
2017-09-09T08:08:05.682Z,416
2017-09-09T08:09:07.226Z,532
2017-09-09T08:10:08.722Z,440
2017-09-09T08:11:10.168Z,372
2017-09-09T08:12:11.642Z,352
2017-09-09T08:13:13.146Z,408
2017-09-09T08:14:14.653Z,388
2017-09-09T08:15:16.192Z,384
2017-09-09T08:16:17.747Z,380
2017-09-09T08:17:19.289Z,376
2017-09-09T08:18:20.797Z,436
2017-09-09T08:19:22.323Z,296
2017-09-09T08:20:23.845Z,280
2017-09-09T08:21:25.355Z,352
2017-09-09T08:22:26.862Z,408
2017-09-09T08:23:28.364Z,532
2017-09-09T08:24:29.906Z,636
2017-09-09T08:25:31.453Z,472
2017-09-09T08:26:32.952Z,428
2017-09-09T08:27:34.524Z,432
2017-09-09T08:28:36.106Z,640
2017-09-09T08:29:37.607Z,564
2017-09-09T08:30:39.105Z,740
2017-09-09T08:31:40.600Z,656
2017-09-09T08:33:11.886Z,600
2017-09-09T08:34:13.396Z,440
2017-09-09T08:35:14.907Z,628
2017-09-09T08:36:16.405Z,936
2017-09-09T08:37:17.947Z,900
2017-09-09T08:38:20.286Z,652
2017-09-09T08:39:21.759Z,748
2017-09-09T08:40:23.279Z,756
2017-09-09T08:41:24.816Z,824
2017-09-09T08:42:26.337Z,992
2017-09-09T08:43:27.869Z,1220
2017-09-09T08:44:29.433Z,1388
2017-09-09T08:45:30.921Z,1448
2017-09-09T08:46:32.461Z,1292
2017-09-09T08:47:34.001Z,1300
2017-09-09T08:48:35.520Z,1016
2017-09-09T08:49:37.165Z,936
2017-09-09T08:50:38.655Z,612
2017-09-09T08:51:40.172Z,688
2017-09-09T08:52:41.809Z,480
2017-09-09T08:53:43.371Z,460
2017-09-09T08:54:44.868Z,420
2017-09-09T08:55:46.440Z,424
2017-09-09T08:56:47.977Z,580
2017-09-09T08:57:49.512Z,508
2017-09-09T08:58:51.055Z,628
2017-09-09T08:59:52.568Z,728
2017-09-09T09:00:54.102Z,848
2017-09-09T09:01:55.609Z,916
2017-09-09T09:02:57.166Z,788
2017-09-09T09:03:58.702Z,668
2017-09-09T09:05:00.261Z,564
2017-09-09T09:06:01.797Z,576
2017-09-09T09:07:03.359Z,648
2017-09-09T09:08:04.919Z,804
2017-09-09T09:09:06.497Z,888
2017-09-09T09:10:08.051Z,764
2017-09-09T09:11:09.568Z,740
2017-09-09T09:12:11.145Z,796
2017-09-09T09:13:12.707Z,788
2017-09-09T09:14:14.331Z,708
2017-09-09T09:15:15.913Z,688
2017-09-09T09:16:17.470Z,796
2017-09-09T09:17:19.030Z,752
2017-09-09T09:18:20.634Z,840
2017-09-09T09:19:22.238Z,892
2017-09-09T09:20:23.816Z,836
2017-09-09T09:21:25.388Z,780
2017-09-09T09:22:26.967Z,768
2017-09-09T09:23:28.551Z,836
2017-09-09T09:24:30.157Z,984
2017-09-09T09:25:31.742Z,908
2017-09-09T09:26:33.349Z,940
2017-09-09T09:27:34.892Z,948
2017-09-09T09:28:36.483Z,932
2017-09-09T09:29:38.058Z,996
2017-09-09T09:30:39.627Z,1012
2017-09-09T09:31:41.190Z,1008
2017-09-09T09:32:42.780Z,1028
2017-09-09T09:33:44.333Z,1132
2017-09-09T09:34:45.914Z,1232
2017-09-09T09:35:47.524Z,1280
2017-09-09T09:36:49.100Z,1324
2017-09-09T09:37:50.697Z,1308
2017-09-09T09:38:52.291Z,1280
2017-09-09T09:39:53.887Z,1284
2017-09-09T09:40:55.462Z,1272
2017-09-09T09:41:57.026Z,1264
2017-09-09T09:42:58.583Z,1240
2017-09-09T09:44:00.139Z,1268
2017-09-09T09:45:35.841Z,1312
2017-09-09T09:46:37.263Z,1252
2017-09-09T09:47:38.665Z,1152
2017-09-09T09:48:40.067Z,1024
2017-09-09T09:49:41.473Z,968
2017-09-09T09:50:42.883Z,1036
2017-09-09T09:51:44.284Z,1260
2017-09-09T09:52:45.702Z,1256
2017-09-09T09:53:47.123Z,1244
2017-09-09T09:54:48.527Z,1368
2017-09-09T09:55:49.939Z,1072
2017-09-09T09:56:51.352Z,1316
2017-09-09T09:57:52.752Z,1668
2017-09-09T09:58:54.165Z,1592
2017-09-09T09:59:56.083Z,1320
2017-09-09T10:00:57.486Z,1304
2017-09-09T10:01:58.887Z,1204
2017-09-09T10:03:00.292Z,1060
2017-09-09T10:04:01.699Z,952
2017-09-09T10:05:03.184Z,804
2017-09-09T10:06:04.777Z,720
2017-09-09T10:07:06.180Z,672
2017-09-09T10:08:07.590Z,704
2017-09-09T10:09:09.200Z,768
2017-09-09T10:10:10.667Z,768
2017-09-09T10:11:12.266Z,648
2017-09-09T10:12:13.616Z,728
2017-09-09T10:13:15.017Z,640
2017-09-09T10:14:16.660Z,692
2017-09-09T10:15:18.064Z,664
2017-09-09T10:16:19.467Z,528
2017-09-09T10:17:20.873Z,484
2017-09-09T10:18:22.273Z,484
2017-09-09T10:19:23.906Z,480
2017-09-09T10:20:25.317Z,456
2017-09-09T10:21:26.727Z,456
2017-09-09T10:22:28.498Z,476
2017-09-09T10:23:29.904Z,476
2017-09-09T10:24:31.307Z,464
2017-09-09T10:25:32.736Z,492
2017-09-09T10:26:34.144Z,496
2017-09-09T10:27:35.568Z,500
2017-09-09T10:28:37.166Z,548
2017-09-09T10:29:38.554Z,608
2017-09-09T10:30:39.961Z,676
2017-09-09T10:31:41.377Z,780
2017-09-09T10:32:42.786Z,860
2017-09-09T10:33:44.187Z,920
2017-09-09T10:34:45.603Z,940
2017-09-09T10:35:47.005Z,908
2017-09-09T10:36:48.404Z,952
2017-09-09T10:37:49.807Z,1052
2017-09-09T10:38:51.216Z,1040
2017-09-09T10:39:52.621Z,944
2017-09-09T10:40:54.023Z,860
2017-09-09T10:41:55.434Z,912
2017-09-09T10:42:56.842Z,996
2017-09-09T10:43:58.242Z,1012
2017-09-09T10:44:59.694Z,1140
2017-09-09T10:46:01.108Z,1144
2017-09-09T10:47:02.514Z,1200
2017-09-09T10:48:03.918Z,1232
2017-09-09T10:49:05.324Z,1200
2017-09-09T10:50:06.749Z,1244
2017-09-09T10:51:08.152Z,1364
2017-09-09T10:52:09.553Z,1452
2017-09-09T10:53:11.009Z,1488
2017-09-09T10:54:12.412Z,1520
2017-09-09T10:55:13.819Z,1512
2017-09-09T10:56:15.222Z,1536
2017-09-09T10:57:16.627Z,1508
2017-09-09T10:58:18.029Z,1424
2017-09-09T10:59:19.431Z,1408
2017-09-09T11:00:20.835Z,1280
2017-09-09T11:01:22.239Z,1216
2017-09-09T11:02:23.643Z,1272
2017-09-09T11:03:25.057Z,1300
2017-09-09T11:04:26.462Z,1312
2017-09-09T11:05:27.864Z,1380
2017-09-09T11:06:29.269Z,1352
2017-09-09T11:07:30.679Z,1344
2017-09-09T11:08:32.093Z,1388
2017-09-09T11:09:33.522Z,1424
2017-09-09T11:10:34.924Z,1388
2017-09-09T11:11:36.327Z,1348
2017-09-09T11:12:37.731Z,1316
2017-09-09T11:13:39.171Z,1268
2017-09-09T11:14:40.541Z,1304
2017-09-09T11:15:41.950Z,1360
2017-09-09T11:16:43.365Z,1452
2017-09-09T11:17:44.769Z,1592
2017-09-09T11:18:46.184Z,1696
2017-09-09T11:19:47.589Z,1692
2017-09-09T11:20:48.996Z,1660
2017-09-09T11:21:50.398Z,1608
2017-09-09T11:22:51.804Z,1580
2017-09-09T11:23:53.211Z,1544
2017-09-09T11:24:54.615Z,1484
2017-09-09T11:25:56.021Z,1484
2017-09-09T11:26:57.424Z,1492
2017-09-09T11:27:58.833Z,1456
2017-09-09T11:29:00.253Z,1460
2017-09-09T11:30:01.656Z,1592
2017-09-09T11:31:03.117Z,1536
2017-09-09T11:32:04.518Z,1588
2017-09-09T11:33:05.929Z,1776
2017-09-09T11:34:07.336Z,1708
2017-09-09T11:35:08.743Z,1780
2017-09-09T11:36:10.155Z,1696
2017-09-09T11:37:11.552Z,1696
2017-09-09T11:38:12.963Z,1644
2017-09-09T11:39:14.367Z,1592
2017-09-09T11:40:15.770Z,1656
2017-09-09T11:41:17.174Z,1720
2017-09-09T11:42:18.581Z,1664
2017-09-09T11:43:19.987Z,1600
2017-09-09T11:44:21.390Z,1524
2017-09-09T11:45:22.798Z,1476
2017-09-09T11:46:24.217Z,1348
2017-09-09T11:47:25.613Z,1264
2017-09-09T11:48:27.017Z,1224
2017-09-09T11:49:28.426Z,1240
2017-09-09T11:50:29.827Z,1280
2017-09-09T11:51:31.231Z,1344
2017-09-09T11:52:32.642Z,1328
2017-09-09T11:53:34.078Z,1260
2017-09-09T11:54:35.489Z,1108
2017-09-09T11:55:36.897Z,1016
2017-09-09T11:56:38.297Z,1032
2017-09-09T11:57:39.701Z,1012
2017-09-09T11:58:41.105Z,968
2017-09-09T11:59:42.525Z,892
2017-09-09T12:00:43.932Z,764
2017-09-09T12:01:45.336Z,744
2017-09-09T12:02:46.755Z,628
2017-09-09T12:03:48.168Z,516
2017-09-09T12:04:50.017Z,536
2017-09-09T12:05:51.419Z,544
2017-09-09T12:06:52.825Z,504
2017-09-09T12:07:54.231Z,524
2017-09-09T12:08:55.642Z,592
2017-09-09T12:09:57.054Z,640
2017-09-09T12:10:58.499Z,528
2017-09-09T12:11:59.865Z,464
2017-09-09T12:13:01.281Z,440
2017-09-09T12:14:02.683Z,380
2017-09-09T12:15:04.096Z,344
2017-09-09T12:16:05.510Z,356
2017-09-09T12:17:06.911Z,380
2017-09-09T12:18:08.313Z,388
2017-09-09T12:19:09.717Z,396
2017-09-09T12:20:11.125Z,408
2017-09-09T12:21:12.527Z,428
2017-09-09T12:22:13.933Z,436
2017-09-09T12:23:15.339Z,444
2017-09-09T12:24:16.740Z,456
2017-09-09T12:25:18.145Z,472
2017-09-09T12:26:19.546Z,476
2017-09-09T12:27:20.947Z,468
2017-09-09T12:28:22.350Z,460
2017-09-09T12:29:23.748Z,444
2017-09-09T12:30:25.155Z,436
2017-09-09T12:31:26.557Z,440
2017-09-09T12:32:27.965Z,440
2017-09-09T12:33:29.375Z,444
2017-09-09T12:34:30.779Z,456
2017-09-09T12:35:32.181Z,488
2017-09-09T12:36:33.587Z,536
2017-09-09T12:37:34.996Z,592
2017-09-09T12:38:36.390Z,668
2017-09-09T12:39:37.798Z,748
2017-09-09T12:40:39.208Z,812
2017-09-09T12:41:40.609Z,896
2017-09-09T12:42:42.070Z,1008
2017-09-09T12:43:43.524Z,1156
2017-09-09T12:44:44.930Z,1312
2017-09-09T12:45:46.336Z,1400
2017-09-09T12:46:47.744Z,1288
2017-09-09T12:47:49.154Z,1080
2017-09-09T12:48:50.640Z,744
2017-09-09T12:49:52.052Z,516
2017-09-09T12:50:53.458Z,448
2017-09-09T12:51:54.959Z,420
2017-09-09T12:52:56.379Z,560
2017-09-09T12:53:57.774Z,684
2017-09-09T12:54:59.180Z,712
2017-09-09T12:56:00.587Z,644
2017-09-09T12:57:02.030Z,580
2017-09-09T12:58:03.434Z,472
2017-09-09T12:59:04.841Z,364
2017-09-09T13:00:06.385Z,320
2017-09-09T13:01:08.069Z,288
2017-09-09T13:02:09.478Z,284
2017-09-09T13:03:17.688Z,308
2017-09-09T13:04:19.090Z,352
2017-09-09T13:05:20.496Z,388
2017-09-09T13:06:21.905Z,412
2017-09-09T13:07:23.303Z,436
2017-09-09T13:08:24.706Z,456
2017-09-09T13:09:26.107Z,440
2017-09-09T13:10:27.511Z,392
2017-09-09T13:11:28.910Z,368
2017-09-09T13:12:30.317Z,364
2017-09-09T13:13:31.731Z,372
2017-09-09T13:14:33.137Z,404
2017-09-09T13:15:34.540Z,444
2017-09-09T13:16:35.938Z,468
2017-09-09T13:17:37.356Z,488
2017-09-09T13:18:38.765Z,504
2017-09-09T13:19:40.166Z,532
2017-09-09T13:20:41.593Z,576
2017-09-09T13:21:42.991Z,640
2017-09-09T13:22:44.392Z,708
2017-09-09T13:23:45.804Z,768
2017-09-09T13:24:47.211Z,836
2017-09-09T13:25:48.610Z,904
2017-09-09T13:26:50.014Z,976
2017-09-09T13:27:51.423Z,1036
2017-09-09T13:28:52.819Z,1068
2017-09-09T13:29:54.228Z,1032
2017-09-09T13:30:55.628Z,968
2017-09-09T13:31:57.035Z,920
2017-09-09T13:32:58.442Z,912
2017-09-09T13:33:59.874Z,916
2017-09-09T13:35:01.280Z,944
2017-09-09T13:36:02.679Z,964
2017-09-09T13:37:04.082Z,1004
2017-09-09T13:38:05.485Z,1056
2017-09-09T13:39:06.893Z,1116
2017-09-09T13:40:08.305Z,1148
2017-09-09T13:41:09.707Z,1168
2017-09-09T13:42:11.112Z,1156
2017-09-09T13:43:12.573Z,1124
2017-09-09T13:44:13.978Z,1088
2017-09-09T13:45:15.379Z,1044
2017-09-09T13:46:16.786Z,1020
2017-09-09T13:47:18.189Z,992
2017-09-09T13:48:19.589Z,968
2017-09-09T13:49:21.000Z,932
2017-09-09T13:50:22.401Z,928
2017-09-09T13:51:23.806Z,916
2017-09-09T13:52:25.207Z,968
2017-09-09T13:53:26.609Z,1116
2017-09-09T13:54:28.013Z,1556
2017-09-09T13:55:29.417Z,1556
2017-09-09T13:56:30.823Z,1596
2017-09-09T13:57:32.243Z,1608
2017-09-09T13:58:33.644Z,1240
2017-09-09T13:59:35.053Z,1256
2017-09-09T14:00:36.459Z,892
2017-09-09T14:01:37.861Z,912
2017-09-09T14:02:39.272Z,1116
2017-09-09T14:03:40.674Z,748
2017-09-09T14:04:42.076Z,600
2017-09-09T14:05:43.483Z,544
2017-09-09T14:06:44.900Z,524
2017-09-09T14:07:46.307Z,528
2017-09-09T14:08:47.845Z,612
2017-09-09T14:09:49.252Z,768
2017-09-09T14:10:50.658Z,1544
2017-09-09T14:11:52.062Z,1492
2017-09-09T14:12:53.549Z,1556
2017-09-09T14:13:54.961Z,1580
2017-09-09T14:14:56.368Z,1612
2017-09-09T14:15:57.774Z,1644
2017-09-09T14:16:59.178Z,1700
2017-09-09T14:18:00.585Z,1684
2017-09-09T14:19:01.989Z,1680
2017-09-09T14:20:03.392Z,1656
2017-09-09T14:21:04.796Z,1616
2017-09-09T14:22:06.210Z,1600
2017-09-09T14:23:07.606Z,1580
2017-09-09T14:24:09.018Z,1544
2017-09-09T14:25:10.422Z,1536